Arboles, Colorado
Current Conditions -  °F | °C
As of 1:53 AM on Saturday 01 Nov 2014 (Local Time) from KDRO Reporting Station
Overcast Overcast  
Wind Chill: 44°   Ceiling: 4900
Heat Index: 48°   Visibility: 10mi
Dew Point: 42°   Wind: 8mph
Humidity: 80%   Direction: 50°NE
Pressure: 30.22"   Gusts: NA
Location:  37.03°N, 107.42°W
Report Text: KDRO 010753Z AUTO 05007KT 10SM OVC049 09/06 A3022 RMK AO2 LTG DSNT SE SLP183 T00890056
Loading
Personal Weather Stations






























Interactive Weather Map
Tropical Storm Tracking
New forecast layout! Learn more

10-Day Weather Forecast

Advertisements
Track Severe Weather on mobile